createdAt,value
2022-09-25T00:01:40.989Z,4.22
2022-09-25T00:04:09.018Z,4.30
2022-09-25T00:06:38.113Z,6.70
2022-09-25T00:09:09.864Z,3.50
2022-09-25T00:11:39.088Z,5.03
2022-09-25T00:14:07.025Z,3.83
2022-09-25T00:16:34.760Z,3.75
2022-09-25T00:19:19.969Z,3.03
2022-09-25T00:21:53.101Z,4.13
2022-09-25T00:24:22.245Z,3.67
2022-09-25T00:26:50.358Z,2.75
2022-09-25T00:29:20.385Z,3.42
2022-09-25T00:31:48.411Z,5.05
2022-09-25T00:34:16.238Z,3.97
2022-09-25T00:36:46.974Z,4.28
2022-09-25T00:39:16.178Z,6.93
2022-09-25T00:41:44.224Z,4.78
2022-09-25T00:44:49.390Z,4.65
2022-09-25T00:47:22.107Z,3.47
2022-09-25T00:49:51.023Z,4.78
2022-09-25T00:52:26.092Z,2.33
2022-09-25T00:54:59.196Z,4.00
2022-09-25T00:57:30.406Z,4.60
2022-09-25T01:00:04.823Z,3.72
2022-09-25T01:02:37.361Z,4.75
2022-09-25T01:05:10.513Z,3.50
2022-09-25T01:07:41.653Z,5.87
2022-09-25T01:10:17.266Z,9.82
2022-09-25T01:12:50.282Z,5.30
2022-09-25T01:15:20.802Z,6.78
2022-09-25T01:18:01.802Z,4.20
2022-09-25T01:20:58.616Z,3.20
2022-09-25T01:23:42.365Z,4.68
2022-09-25T01:26:29.095Z,4.03
2022-09-25T01:29:07.645Z,4.88
2022-09-25T01:31:43.325Z,4.35
2022-09-25T01:34:19.101Z,4.05
2022-09-25T01:36:54.140Z,4.95
2022-09-25T01:39:24.926Z,7.75
2022-09-25T01:41:59.535Z,5.85
2022-09-25T01:44:32.286Z,5.97
2022-09-25T01:47:08.263Z,6.63
2022-09-25T01:49:40.663Z,4.80
2022-09-25T01:52:15.659Z,7.03
2022-09-25T01:54:48.035Z,5.65
2022-09-25T01:57:21.163Z,6.22
2022-09-25T01:59:57.426Z,5.63
2022-09-25T02:02:31.472Z,7.57
2022-09-25T02:05:05.926Z,6.57
2022-09-25T02:07:38.804Z,4.15
2022-09-25T02:10:11.391Z,4.25
2022-09-25T02:12:44.074Z,5.90
2022-09-25T02:15:20.091Z,8.23
2022-09-25T02:18:11.344Z,4.13
2022-09-25T02:20:42.465Z,6.13
2022-09-25T02:23:18.762Z,4.85
2022-09-25T02:25:54.258Z,4.43
2022-09-25T02:28:23.213Z,6.97
2022-09-25T02:30:57.564Z,6.35
2022-09-25T02:33:26.368Z,4.50
2022-09-25T02:35:54.333Z,5.68
2022-09-25T02:38:22.711Z,7.55
2022-09-25T02:40:56.086Z,8.35
2022-09-25T02:43:35.521Z,9.73
2022-09-25T02:46:14.952Z,5.07
2022-09-25T02:48:50.885Z,4.05
2022-09-25T02:51:28.241Z,7.10
2022-09-25T02:54:06.732Z,10.88
2022-09-25T02:56:38.340Z,4.05
2022-09-25T02:59:10.327Z,5.95
2022-09-25T03:01:42.909Z,5.10
2022-09-25T03:04:12.223Z,5.53
2022-09-25T03:06:43.716Z,3.97
2022-09-25T03:09:11.789Z,4.97
2022-09-25T03:11:43.557Z,4.63
2022-09-25T03:14:12.149Z,4.25
2022-09-25T03:16:47.925Z,3.22
2022-09-25T03:19:19.683Z,3.47
2022-09-25T03:21:47.803Z,3.13
2022-09-25T03:24:20.973Z,2.97
2022-09-25T03:26:48.969Z,3.70
2022-09-25T03:29:19.752Z,3.45
2022-09-25T03:31:49.588Z,6.18
2022-09-25T03:34:19.784Z,4.60
2022-09-25T03:36:50.264Z,4.30
2022-09-25T03:39:18.788Z,5.00
2022-09-25T03:41:47.822Z,6.72
2022-09-25T03:44:16.209Z,3.92
2022-09-25T03:46:44.022Z,3.15
2022-09-25T03:49:13.891Z,5.53
2022-09-25T03:51:47.653Z,5.07
2022-09-25T03:54:18.360Z,2.80
2022-09-25T03:56:46.287Z,2.78
2022-09-25T03:59:14.166Z,5.65
2022-09-25T04:01:42.335Z,5.32
2022-09-25T04:04:10.574Z,3.42
2022-09-25T04:06:39.731Z,5.07
2022-09-25T04:09:07.453Z,3.95
2022-09-25T04:11:35.712Z,3.85
2022-09-25T04:14:03.449Z,6.78
2022-09-25T04:16:31.471Z,3.47
2022-09-25T04:18:59.720Z,4.25
2022-09-25T04:21:27.938Z,4.22
2022-09-25T04:24:14.685Z,4.53
2022-09-25T04:26:42.469Z,2.78
2022-09-25T04:29:10.273Z,4.70
2022-09-25T04:31:38.179Z,3.33
2022-09-25T04:34:04.972Z,2.70
2022-09-25T04:36:32.743Z,3.22
2022-09-25T04:39:02.141Z,2.08
2022-09-25T04:41:29.889Z,4.10
2022-09-25T04:44:00.214Z,2.20
2022-09-25T04:46:28.059Z,3.72
2022-09-25T04:49:00.184Z,3.05
2022-09-25T04:51:30.091Z,2.30
2022-09-25T04:53:57.951Z,2.13
2022-09-25T04:56:27.147Z,2.78
2022-09-25T04:58:55.018Z,3.90
2022-09-25T05:01:25.995Z,2.20
2022-09-25T05:03:54.534Z,3.40
2022-09-25T05:06:23.050Z,4.97
2022-09-25T05:08:51.809Z,3.05
2022-09-25T05:11:20.004Z,3.20
2022-09-25T05:13:51.869Z,2.75
2022-09-25T05:16:22.834Z,7.72
2022-09-25T05:18:50.851Z,2.67
2022-09-25T05:21:24.173Z,6.07
2022-09-25T05:23:52.226Z,2.97
2022-09-25T05:26:29.992Z,2.47
2022-09-25T05:28:59.163Z,2.75
2022-09-25T05:31:27.130Z,4.10
2022-09-25T05:33:55.743Z,5.10
2022-09-25T05:36:24.054Z,4.55
2022-09-25T05:38:52.059Z,1.67
2022-09-25T05:41:19.985Z,2.00
2022-09-25T05:43:48.203Z,2.28
2022-09-25T05:46:20.439Z,1.83
2022-09-25T05:48:48.300Z,2.67
2022-09-25T05:51:19.945Z,1.50
2022-09-25T05:53:47.755Z,0.98
2022-09-25T05:56:17.358Z,3.38
2022-09-25T05:58:45.692Z,2.13
2022-09-25T06:01:16.760Z,4.13
2022-09-25T06:03:46.085Z,2.78
2022-09-25T06:06:14.023Z,2.70
2022-09-25T06:08:43.467Z,4.03
2022-09-25T06:11:11.618Z,3.25
2022-09-25T06:13:44.337Z,4.47
2022-09-25T06:16:19.373Z,2.13
2022-09-25T06:18:48.735Z,2.03
2022-09-25T06:21:16.663Z,1.88
2022-09-25T06:23:50.740Z,1.85
2022-09-25T06:26:18.779Z,3.40
2022-09-25T06:28:46.608Z,5.20
2022-09-25T06:31:14.453Z,3.63
2022-09-25T06:33:43.798Z,1.50
2022-09-25T06:36:13.417Z,2.60
2022-09-25T06:38:41.426Z,1.80
2022-09-25T06:41:09.394Z,3.13
2022-09-25T06:43:37.228Z,2.08
2022-09-25T06:46:05.395Z,1.42
2022-09-25T06:48:33.299Z,3.92
2022-09-25T06:51:02.049Z,1.90
2022-09-25T06:53:34.000Z,4.80
2022-09-25T06:56:02.787Z,1.83
2022-09-25T06:58:31.645Z,2.78
2022-09-25T07:00:59.630Z,1.67
2022-09-25T07:03:45.325Z,2.92
2022-09-25T07:06:18.555Z,3.05
2022-09-25T07:08:49.137Z,2.30
2022-09-25T07:11:19.134Z,2.33
2022-09-25T07:13:47.301Z,2.60
2022-09-25T07:16:17.088Z,3.80
2022-09-25T07:18:46.586Z,2.55
2022-09-25T07:21:18.994Z,3.15
2022-09-25T07:23:50.420Z,4.00
2022-09-25T07:26:22.234Z,2.33
2022-09-25T07:28:54.803Z,1.70
2022-09-25T07:31:24.601Z,3.67
2022-09-25T07:33:52.873Z,2.83
2022-09-25T07:36:21.514Z,1.65
2022-09-25T07:38:54.407Z,2.95
2022-09-25T07:41:23.702Z,1.25
2022-09-25T07:44:01.995Z,2.03
2022-09-25T07:46:43.162Z,3.05
2022-09-25T07:49:11.471Z,2.95
2022-09-25T07:51:39.640Z,1.75
2022-09-25T07:54:09.540Z,2.65
2022-09-25T07:56:38.328Z,4.28
2022-09-25T07:59:06.349Z,4.80
2022-09-25T08:01:37.090Z,3.75
2022-09-25T08:04:07.490Z,2.23
2022-09-25T08:06:35.352Z,2.97
2022-09-25T08:09:06.888Z,2.42
2022-09-25T08:11:39.482Z,3.30
2022-09-25T08:14:07.479Z,2.33
2022-09-25T08:16:35.410Z,2.83
2022-09-25T08:19:03.862Z,3.95
2022-09-25T08:21:31.652Z,3.70
2022-09-25T08:24:01.074Z,2.05
2022-09-25T08:26:30.239Z,2.25
2022-09-25T08:29:00.119Z,6.45
2022-09-25T08:31:28.782Z,4.38
2022-09-25T08:34:05.996Z,5.13
2022-09-25T08:36:43.130Z,3.17
2022-09-25T08:39:16.023Z,2.28
2022-09-25T08:41:49.882Z,2.00
2022-09-25T08:44:26.710Z,5.35
2022-09-25T08:47:20.001Z,1.88
2022-09-25T08:50:02.404Z,2.08
2022-09-25T08:52:32.112Z,3.47
2022-09-25T08:55:00.041Z,6.93
2022-09-25T08:57:34.955Z,2.47
2022-09-25T09:00:09.308Z,2.35
2022-09-25T09:02:42.609Z,9.55
2022-09-25T09:05:18.560Z,2.97
2022-09-25T09:07:51.152Z,2.72
2022-09-25T09:10:31.757Z,3.15
2022-09-25T09:13:06.277Z,2.20
2022-09-25T09:15:41.257Z,3.25
2022-09-25T09:18:19.607Z,4.68
2022-09-25T09:20:53.940Z,2.30
2022-09-25T09:23:23.469Z,3.13
2022-09-25T09:26:01.073Z,2.67
2022-09-25T09:28:59.977Z,4.68
2022-09-25T09:31:46.754Z,6.70
2022-09-25T09:35:00.969Z,2.30
2022-09-25T09:37:35.617Z,1.58
2022-09-25T09:40:21.853Z,2.33
2022-09-25T09:43:00.044Z,2.28
2022-09-25T09:45:38.527Z,2.28
2022-09-25T09:48:15.421Z,2.35
2022-09-25T09:50:52.308Z,1.30
2022-09-25T09:53:29.800Z,1.48
2022-09-25T09:56:01.902Z,1.52
2022-09-25T09:58:39.914Z,1.15
2022-09-25T10:01:22.459Z,1.48
2022-09-25T10:04:06.755Z,2.05
2022-09-25T10:06:38.672Z,2.20
2022-09-25T10:09:13.593Z,2.65
2022-09-25T10:11:43.032Z,1.38
2022-09-25T10:14:21.056Z,1.65
2022-09-25T10:16:51.193Z,2.22
2022-09-25T10:19:23.412Z,1.83
2022-09-25T10:21:56.630Z,3.25
2022-09-25T10:24:51.380Z,0.65
2022-09-25T10:27:33.768Z,1.42
2022-09-25T10:30:14.388Z,1.08
2022-09-25T10:32:52.348Z,1.00
2022-09-25T10:35:28.149Z,2.00
2022-09-25T10:37:58.523Z,1.02
2022-09-25T10:40:33.421Z,1.40
2022-09-25T10:43:17.083Z,1.02
2022-09-25T10:45:45.403Z,1.50
2022-09-25T10:48:44.967Z,0.70
2022-09-25T10:51:17.323Z,1.23
2022-09-25T10:53:46.761Z,1.40
2022-09-25T10:56:18.514Z,1.25
2022-09-25T10:58:51.179Z,1.70
2022-09-25T11:01:19.522Z,2.92
2022-09-25T11:03:52.877Z,1.25
2022-09-25T11:06:25.856Z,2.53
2022-09-25T11:09:14.763Z,1.55
2022-09-25T11:11:44.234Z,0.77
2022-09-25T11:14:22.498Z,0.82
2022-09-25T11:16:54.066Z,0.93
2022-09-25T11:19:30.114Z,0.90
2022-09-25T11:22:10.814Z,1.15
2022-09-25T11:24:50.804Z,1.95
2022-09-25T11:27:24.051Z,0.93
2022-09-25T11:30:02.012Z,0.80
2022-09-25T11:32:36.845Z,1.40
2022-09-25T11:35:20.613Z,1.17
2022-09-25T11:38:02.741Z,5.38
2022-09-25T11:40:56.105Z,1.27
2022-09-25T11:43:38.932Z,1.83
2022-09-25T11:46:19.017Z,0.93
2022-09-25T11:48:55.477Z,1.00
2022-09-25T11:51:37.078Z,2.22
2022-09-25T11:54:32.789Z,1.38
2022-09-25T11:57:07.582Z,0.65
2022-09-25T11:59:51.689Z,1.75
2022-09-25T12:02:27.862Z,0.73
2022-09-25T12:05:20.001Z,1.65
2022-09-25T12:08:06.483Z,0.82
2022-09-25T12:10:47.326Z,0.52
2022-09-25T12:13:23.720Z,0.30
2022-09-25T12:16:03.864Z,1.25
2022-09-25T12:18:47.993Z,0.38
2022-09-25T12:21:18.863Z,0.43
2022-09-25T12:23:57.895Z,0.57
2022-09-25T12:26:35.453Z,0.60
2022-09-25T12:29:20.866Z,0.47
2022-09-25T12:31:59.054Z,0.50
2022-09-25T12:34:42.890Z,1.00
2022-09-25T12:37:27.631Z,0.80
2022-09-25T12:39:59.941Z,6.70
2022-09-25T12:42:40.780Z,1.13
2022-09-25T12:45:17.018Z,0.32
2022-09-25T12:47:48.580Z,1.52
2022-09-25T12:50:18.660Z,1.80
2022-09-25T12:52:51.175Z,1.83
2022-09-25T12:55:24.568Z,1.80
2022-09-25T12:58:01.750Z,2.05
2022-09-25T13:00:32.727Z,2.25
2022-09-25T13:03:17.620Z,1.63
2022-09-25T13:05:51.621Z,1.55
2022-09-25T13:08:25.835Z,0.88
2022-09-25T13:13:28.162Z,0.38
2022-09-25T13:15:58.303Z,0.52
2022-09-25T13:18:29.423Z,1.30
2022-09-25T13:20:58.586Z,0.82
2022-09-25T13:23:30.345Z,0.38
2022-09-25T13:26:01.491Z,0.68
2022-09-25T13:28:33.312Z,0.70
2022-09-25T13:31:09.978Z,0.90
2022-09-25T13:33:49.968Z,0.75
2022-09-25T13:36:32.795Z,1.60
2022-09-25T13:39:23.517Z,0.55
2022-09-25T13:41:55.523Z,0.40
2022-09-25T13:44:59.474Z,0.85
2022-09-25T13:47:57.372Z,1.25
2022-09-25T13:50:28.309Z,0.65
2022-09-25T13:53:33.583Z,0.60
2022-09-25T13:56:29.748Z,0.95
2022-09-25T13:59:23.299Z,1.23
2022-09-25T14:02:42.103Z,0.35
2022-09-25T14:05:17.154Z,0.73
2022-09-25T14:07:46.748Z,2.88
2022-09-25T14:10:15.320Z,1.33
2022-09-25T14:12:50.737Z,1.20
2022-09-25T14:15:26.793Z,2.08
2022-09-25T14:17:57.198Z,1.25
2022-09-25T14:20:33.345Z,1.20
2022-09-25T14:23:06.113Z,1.02
2022-09-25T14:25:36.359Z,1.65
2022-09-25T14:28:16.710Z,1.85
2022-09-25T14:30:52.698Z,3.40
2022-09-25T14:33:42.323Z,0.73
2022-09-25T14:36:22.300Z,0.77
2022-09-25T14:39:16.149Z,2.08
2022-09-25T14:42:26.540Z,2.27
2022-09-25T14:45:23.077Z,2.15
2022-09-25T14:47:53.721Z,1.02
2022-09-25T14:50:50.374Z,0.32
2022-09-25T14:53:27.688Z,0.57
2022-09-25T14:55:57.762Z,0.50
2022-09-25T14:58:32.618Z,1.90
2022-09-25T15:01:12.014Z,1.15
2022-09-25T15:03:43.420Z,0.73
2022-09-25T15:06:16.009Z,1.70
2022-09-25T15:08:53.817Z,0.32
2022-09-25T15:11:22.781Z,0.82
2022-09-25T15:13:54.279Z,1.70
2022-09-25T15:16:41.900Z,0.60
2022-09-25T15:19:17.848Z,1.85
2022-09-25T15:21:45.841Z,4.03
2022-09-25T15:24:18.427Z,1.00
2022-09-25T15:26:51.367Z,1.38
2022-09-25T15:29:22.510Z,1.83
2022-09-25T15:31:52.089Z,0.65
2022-09-25T15:34:30.517Z,0.77
2022-09-25T15:37:15.471Z,0.95
2022-09-25T15:39:45.942Z,2.50
2022-09-25T15:42:15.225Z,0.80
2022-09-25T15:44:43.787Z,0.50
2022-09-25T15:47:52.412Z,3.30
2022-09-25T15:50:24.849Z,0.68
2022-09-25T15:52:56.783Z,1.52
2022-09-25T15:55:26.371Z,0.55
2022-09-25T15:58:01.203Z,0.60
2022-09-25T16:00:46.979Z,0.85
2022-09-25T16:03:36.448Z,0.50
2022-09-25T16:06:04.839Z,0.35
2022-09-25T16:08:36.230Z,0.75
2022-09-25T16:11:16.768Z,0.93
2022-09-25T16:13:48.649Z,0.63
2022-09-25T16:16:22.557Z,0.70
2022-09-25T16:18:54.370Z,0.30
2022-09-25T16:21:28.867Z,1.65
2022-09-25T16:23:59.989Z,0.93
2022-09-25T16:26:36.550Z,2.28
2022-09-25T16:29:10.010Z,0.68
2022-09-25T16:31:38.600Z,0.60
2022-09-25T16:34:15.899Z,1.30
2022-09-25T16:36:46.091Z,0.60
2022-09-25T16:39:33.607Z,1.15
2022-09-25T16:42:27.638Z,1.88
2022-09-25T16:45:05.735Z,2.17
2022-09-25T16:47:35.080Z,0.50
2022-09-25T16:50:07.388Z,0.47
2022-09-25T16:52:35.861Z,0.32
2022-09-25T16:55:09.103Z,1.05
2022-09-25T16:57:41.331Z,0.30
2022-09-25T17:00:18.464Z,1.45
2022-09-25T17:02:56.637Z,0.75
2022-09-25T17:05:27.579Z,0.38
2022-09-25T17:07:57.270Z,0.70
2022-09-25T17:10:29.255Z,2.08
2022-09-25T17:13:01.489Z,0.93
2022-09-25T17:15:33.015Z,0.47
2022-09-25T17:18:14.668Z,0.90
2022-09-25T17:20:42.572Z,0.77
2022-09-25T17:23:15.673Z,0.82
2022-09-25T17:25:45.660Z,0.50
2022-09-25T17:28:15.544Z,1.30
2022-09-25T17:30:45.535Z,2.33
2022-09-25T17:33:17.249Z,2.45
2022-09-25T17:35:49.308Z,1.33
2022-09-25T17:38:17.770Z,1.10
2022-09-25T17:40:52.291Z,0.82
2022-09-25T17:43:21.795Z,1.08
2022-09-25T17:45:52.182Z,1.73
2022-09-25T17:48:24.182Z,2.38
2022-09-25T17:50:53.549Z,1.08
2022-09-25T17:53:23.703Z,1.45
2022-09-25T17:55:53.913Z,0.70
2022-09-25T17:58:24.557Z,0.85
2022-09-25T18:00:53.702Z,0.75
2022-09-25T18:03:22.228Z,1.15
2022-09-25T18:05:50.340Z,0.52
2022-09-25T18:08:24.383Z,1.10
2022-09-25T18:10:55.273Z,1.02
2022-09-25T18:13:24.637Z,1.20
2022-09-25T18:15:55.616Z,1.05
2022-09-25T18:18:24.507Z,0.93
2022-09-25T18:21:10.174Z,1.23
2022-09-25T18:23:38.710Z,1.20
2022-09-25T18:26:09.330Z,1.48
2022-09-25T18:28:38.623Z,1.00
2022-09-25T18:31:07.399Z,0.55
2022-09-25T18:33:37.396Z,1.20
2022-09-25T18:36:11.485Z,1.10
2022-09-25T18:38:41.512Z,0.70
2022-09-25T18:41:14.467Z,1.30
2022-09-25T18:43:43.973Z,0.75
2022-09-25T18:46:11.809Z,1.17
2022-09-25T18:48:42.519Z,1.75
2022-09-25T18:51:10.800Z,2.72
2022-09-25T18:53:38.558Z,0.55
2022-09-25T18:56:06.691Z,0.80
2022-09-25T18:58:35.561Z,0.95
2022-09-25T19:01:07.748Z,1.10
2022-09-25T19:03:40.633Z,0.73
2022-09-25T19:06:08.868Z,1.13
2022-09-25T19:08:37.201Z,0.85
2022-09-25T19:11:13.853Z,1.63
2022-09-25T19:13:42.208Z,1.45
2022-09-25T19:16:11.485Z,1.25
2022-09-25T19:18:41.506Z,1.15
2022-09-25T19:21:09.412Z,1.80
2022-09-25T19:23:37.973Z,0.50
2022-09-25T19:26:06.908Z,1.65
2022-09-25T19:28:36.299Z,1.70
2022-09-25T19:31:05.909Z,1.15
2022-09-25T19:33:37.857Z,1.00
2022-09-25T19:36:07.993Z,0.88
2022-09-25T19:38:37.607Z,1.38
2022-09-25T19:41:20.378Z,1.52
2022-09-25T19:43:48.642Z,1.48
2022-09-25T19:46:18.265Z,1.25
2022-09-25T19:49:28.709Z,1.42
2022-09-25T19:51:56.790Z,1.02
2022-09-25T19:54:24.648Z,1.17
2022-09-25T19:56:52.604Z,1.50
2022-09-25T19:59:21.178Z,1.20
2022-09-25T20:02:01.586Z,1.52
2022-09-25T20:04:31.130Z,0.63
2022-09-25T20:06:58.926Z,1.63
2022-09-25T20:09:27.189Z,1.23
2022-09-25T20:11:55.434Z,1.88
2022-09-25T20:14:26.249Z,1.85
2022-09-25T20:16:54.817Z,1.73
2022-09-25T20:19:23.142Z,2.47
2022-09-25T20:21:52.990Z,2.45
2022-09-25T20:24:22.870Z,1.00
2022-09-25T20:26:50.857Z,1.27
2022-09-25T20:29:21.956Z,1.10
2022-09-25T20:31:49.949Z,2.15
2022-09-25T20:34:20.891Z,1.33
2022-09-25T20:36:49.065Z,2.10
2022-09-25T20:39:23.208Z,2.03
2022-09-25T20:41:51.468Z,1.45
2022-09-25T20:44:19.627Z,1.48
2022-09-25T20:46:51.915Z,0.77
2022-09-25T20:49:20.225Z,3.72
2022-09-25T20:51:51.161Z,4.50
2022-09-25T20:54:20.795Z,1.98
2022-09-25T20:56:54.554Z,2.53
2022-09-25T20:59:22.475Z,1.25
2022-09-25T21:01:52.826Z,1.63
2022-09-25T21:04:22.551Z,1.73
2022-09-25T21:06:50.429Z,2.08
2022-09-25T21:09:23.298Z,0.98
2022-09-25T21:11:56.924Z,2.28
2022-09-25T21:14:36.072Z,1.77
2022-09-25T21:17:04.056Z,1.73
2022-09-25T21:19:33.112Z,2.20
2022-09-25T21:22:01.199Z,0.88
2022-09-25T21:24:34.458Z,1.60
2022-09-25T21:27:02.457Z,1.80
2022-09-25T21:29:31.859Z,1.38
2022-09-25T21:32:05.735Z,1.25
2022-09-25T21:34:37.865Z,1.42
2022-09-25T21:37:08.232Z,1.70
2022-09-25T21:39:56.360Z,0.93
2022-09-25T21:42:29.781Z,0.90
2022-09-25T21:45:10.025Z,1.75
2022-09-25T21:47:38.079Z,0.70
2022-09-25T21:50:06.665Z,1.05
2022-09-25T21:52:34.814Z,1.25
2022-09-25T21:55:20.343Z,0.77
2022-09-25T21:57:53.733Z,0.70
2022-09-25T22:00:21.592Z,1.20
2022-09-25T22:02:52.904Z,1.15
2022-09-25T22:05:21.953Z,0.90
2022-09-25T22:08:03.882Z,0.80
2022-09-25T22:10:33.330Z,0.73
2022-09-25T22:13:01.486Z,0.93
2022-09-25T22:15:29.543Z,0.75
2022-09-25T22:17:57.341Z,0.70
2022-09-25T22:20:25.213Z,0.82
2022-09-25T22:22:55.910Z,1.40
2022-09-25T22:25:26.255Z,1.52
2022-09-25T22:27:58.243Z,2.45
2022-09-25T22:30:26.778Z,2.08
2022-09-25T22:32:57.562Z,1.02
2022-09-25T22:35:25.744Z,2.28
2022-09-25T22:37:59.751Z,1.15
2022-09-25T22:40:28.293Z,1.65
2022-09-25T22:42:56.126Z,1.55
2022-09-25T22:45:29.345Z,0.90
2022-09-25T22:48:05.102Z,1.92
2022-09-25T22:50:35.343Z,3.47
2022-09-25T22:53:06.536Z,2.28
2022-09-25T22:55:36.996Z,1.73
2022-09-25T22:58:04.936Z,0.80
2022-09-25T23:00:34.288Z,2.78
2022-09-25T23:03:07.891Z,1.17
2022-09-25T23:05:38.040Z,2.22
2022-09-25T23:08:06.949Z,1.30
2022-09-25T23:11:06.655Z,2.25
2022-09-25T23:13:35.804Z,0.80
2022-09-25T23:16:10.345Z,0.75
2022-09-25T23:18:47.039Z,1.17
2022-09-25T23:21:24.209Z,1.00
2022-09-25T23:23:56.717Z,0.88
2022-09-25T23:26:25.441Z,1.30
2022-09-25T23:28:53.595Z,1.25
2022-09-25T23:31:23.432Z,2.42
2022-09-25T23:33:51.423Z,1.05
2022-09-25T23:36:24.656Z,1.17
2022-09-25T23:39:02.097Z,1.92
2022-09-25T23:41:31.904Z,0.50
2022-09-25T23:44:07.585Z,0.55
2022-09-25T23:46:39.666Z,0.40
2022-09-25T23:49:08.362Z,0.82
2022-09-25T23:51:37.182Z,1.02
2022-09-25T23:54:05.628Z,1.02
2022-09-25T23:56:35.143Z,0.50
2022-09-25T23:59:03.622Z,0.50
